ROTAER D-AMDT 33/18 Ver Mudanças

PLATAFORMA P-20 ( SBMM ) / MACAÉ, RJ 22 21 26S/040 05 025W
HD PRIV Petrobrás UTC-3 HJ 38 (125)
SBCW (CINDACTA 2)
MET -

[1] [2] [3] CMA 1,2,3,4

[1] [2] [3] (22) 2792-2034

RMK -

REGULAMENTOS PARA TRÁFEGO LOCAL
  1. OPS HEL TKOF DA AREA DE RESPONSABILIDADE DAS RDO ENCHOVA, RDO MARLIM E RDO ALBACORA DEVERAO APRESENTAR PVC NO AD DE ORIGEM NO CONTINENTE E HEL REALIZANDO FLT TRANSLADO BTN AS PLATAFORMAS PODERAO APRESENTAR PLN VIA RADIOTELEFONIA PARA AS RDO ENCHOVA, RDO MARLIM E RDO ALBACORA
COMPL -
  • [1] (22) 2792-2552
  • [2] (DLY 0900-2100)
  • [3] OPR PETROBRAS
TEMP (1)
RevogadoINFOTEMP CW0760R/19
SENSORES DE TEMPERATURA DO AR U/S

Duração: 01/11/19 21:15 a 30/11/19 13:00 UTC | Divulgação: 01/11/2019 21:08


Suplementos AIP (0)

NOTAM (2)

ATM

E1888/19 N 31/08/2019 01:11
SID RNAV PALUV 1A - ROGIM 1A COMPULSORIA APRESENTACAO DE PLN ZULU
COM MUDANCA DE REGRA DE VOO PARA IFR A PARTIR DE PALUV OU ROGIM


CNS

Z2105/18 R Z0895/18 03/12/2018 16:34
NDB MAR 375.00KHZ RETIRADO
REF: AIP-BRASIL ENR 6 L2/H2
ATCSMAC MACAE
IAC NDB A (HEL ONLY)
IAC RNAV (GNSS) 115


Nascer/Por do Sol

07:47

21:06


METAR

230100Z AUTO 02024KT 9999 SCT010 25/23 Q1012 W25/S4= 2019112301 - SPECI SBMM 230113Z AUTO 02024KT 9999 BKN010 25/23 Q1012 W25/S4=

TAF

Não disponível


Cartas (2)

IAC


SID



Rotas Preferenciais (0)